Time;durP1;ratioP1;P1;durP2;ratioP2;P2;SDS_P1;SDS_P2;PMS_P1;PMS_P2;Temp;Humidity;BMP_temperature;BMP_pressure;BME280_temperature;BME280_humidity;BME280_pressure;Samples;Min_cycle;Max_cycle;Signal;HPM_P1;HPM_P2
2022/01/12 00:01:35;;;;;;;269.90;111.75;;;;;;;-5.14;74.51;102395.47;1985749;89;34280;-59
2022/01/12 00:04:36;;;;;;;270.88;108.72;;;;;;;-5.17;74.45;102394.01;1989526;87;30781;-61
2022/01/12 00:07:39;;;;;;;268.10;112.20;;;;;;;-5.19;74.53;102392.64;1992043;88;28220;-63
2022/01/12 00:10:41;;;;;;;274.37;110.17;;;;;;;-5.19;74.48;102390.03;1991767;89;29965;-61
2022/01/12 00:13:43;;;;;;;260.25;108.57;;;;;;;-5.21;74.56;102381.22;2026862;86;31051;-65
2022/01/12 00:16:48;;;;;;;271.15;110.05;;;;;;;-5.17;74.74;102382.25;2028885;86;34280;-61
2022/01/12 00:19:49;;;;;;;266.00;107.17;;;;;;;-5.15;74.74;102382.84;2073064;85;30513;-65
2022/01/12 00:22:52;;;;;;;256.23;106.47;;;;;;;-5.13;74.71;102386.42;2074819;85;27689;-65
2022/01/12 00:35:45;;;;;;;246.90;103.55;;;;;;;-5.08;74.69;102379.67;2096242;84;30794;-64
2022/01/12 00:38:48;;;;;;;254.80;108.95;;;;;;;-5.06;74.69;102375.42;2053093;84;27741;-63
2022/01/12 00:41:50;;;;;;;257.27;105.37;;;;;;;-5.04;74.65;102378.10;2091397;84;29285;-60
2022/01/12 00:44:53;;;;;;;253.35;100.72;;;;;;;-5.04;74.63;102379.02;2096923;84;31414;-66
2022/01/12 00:47:55;;;;;;;252.38;98.30;;;;;;;-5.04;74.73;102375.09;2096503;83;32979;-62
2022/01/12 00:50:59;;;;;;;247.20;99.97;;;;;;;-5.03;74.77;102378.59;2083894;85;30458;-60
2022/01/12 00:54:03;;;;;;;232.77;98.67;;;;;;;-5.02;74.67;102379.08;2060246;86;27647;-60
2022/01/12 00:57:05;;;;;;;229.68;95.38;;;;;;;-5.02;74.59;102375.16;2036679;86;28724;-61
2022/01/12 01:00:08;;;;;;;227.57;96.57;;;;;;;-5.00;74.65;102393.11;2053841;85;31056;-62
2022/01/12 01:03:10;;;;;;;223.30;90.45;;;;;;;-5.01;74.59;102388.70;2047099;86;33934;-62
2022/01/12 01:06:12;;;;;;;219.32;87.62;;;;;;;-5.04;74.73;102385.94;2054911;85;30007;-65
2022/01/12 01:09:14;;;;;;;205.90;85.15;;;;;;;-5.05;74.87;102388.98;2047692;86;28045;-65
2022/01/12 01:12:16;;;;;;;204.95;87.33;;;;;;;-5.05;74.99;102393.33;2048251;86;29661;-65
2022/01/12 01:15:27;;;;;;;190.07;80.65;;;;;;;-5.04;75.15;102392.08;2047965;86;32034;-65
2022/01/12 01:28:26;;;;;;;190.15;81.57;;;;;;;-4.95;75.04;102386.80;2053562;86;29889;-61
2022/01/12 01:31:31;;;;;;;202.90;82.42;;;;;;;-4.97;75.08;102374.09;2050514;86;32371;-64
2022/01/12 01:34:33;;;;;;;193.73;81.30;;;;;;;-4.93;75.25;102369.08;2048266;86;33807;-62
2022/01/12 01:37:39;;;;;;;199.23;85.87;;;;;;;-4.93;75.02;102371.69;2051583;86;30001;-66
2022/01/12 01:40:43;;;;;;;199.47;84.87;;;;;;;-4.91;75.23;102374.36;2055263;86;27663;-67
2022/01/12 01:53:55;;;;;;;205.35;82.97;;;;;;;-4.75;75.25;102369.04;2044521;87;30816;-61
2022/01/12 01:56:57;;;;;;;198.05;81.65;;;;;;;-4.74;75.24;102369.52;2099048;84;27704;-65
2022/01/12 02:00:00;;;;;;;210.57;86.63;;;;;;;-4.72;75.29;102374.84;2104651;84;28602;-64
2022/01/12 02:03:02;;;;;;;209.22;84.50;;;;;;;-4.70;75.27;102377.52;2079923;85;32071;-65
2022/01/12 02:06:05;;;;;;;205.95;86.12;;;;;;;-4.70;75.28;102376.21;2039569;87;33692;-64
2022/01/12 02:09:07;;;;;;;214.25;85.30;;;;;;;-4.69;75.25;102380.62;2048591;86;29641;-64
2022/01/12 02:12:29;;;;;;;206.15;81.22;;;;;;;-4.71;75.19;102376.60;2015383;88;27728;-65
2022/01/12 02:15:32;;;;;;;194.72;81.22;;;;;;;-4.74;74.96;102378.67;2045633;86;28775;-64
2022/01/12 02:18:53;;;;;;;204.95;84.05;;;;;;;-4.77;74.88;102375.91;2045613;86;27733;-64
2022/01/12 02:35:32;;;;;;;203.77;83.03;;;;;;;-4.89;74.83;102391.02;2045887;86;30916;-62
2022/01/12 02:41:38;;;;;;;225.50;89.20;;;;;;;-4.92;74.90;102377.80;2050019;86;30057;-60
2022/01/12 02:54:22;;;;;;;213.65;85.42;;;;;;;-5.06;74.63;102375.85;2016989;87;34128;-63
2022/01/12 02:57:25;;;;;;;209.12;88.35;;;;;;;-5.10;74.57;102377.40;2042140;86;30848;-64
2022/01/12 03:00:41;;;;;;;207.47;86.00;;;;;;;-5.13;74.62;102373.36;2045710;87;27602;-62
2022/01/12 03:03:36;;;;;;;213.57;86.20;;;;;;;-5.16;74.56;102378.43;2043409;85;28722;-60
2022/01/12 03:06:41;;;;;;;212.93;87.22;;;;;;;-5.17;74.71;102384.47;2045519;86;31088;-59
2022/01/12 03:09:43;;;;;;;163.85;68.35;;;;;;;-5.19;74.69;102382.19;2049462;85;32966;-64
2022/01/12 03:12:46;;;;;;;229.65;89.80;;;;;;;-5.19;74.81;102380.89;2049186;86;30546;-64
2022/01/12 03:15:49;;;;;;;232.95;88.10;;;;;;;-5.23;75.00;102372.41;2048660;86;27681;-63
2022/01/12 03:18:54;;;;;;;234.60;92.53;;;;;;;-5.24;75.23;102355.84;2045644;86;28123;-65
2022/01/12 03:21:55;;;;;;;225.53;90.40;;;;;;;-5.23;75.30;102357.64;2049903;85;31679;-60
2022/01/12 03:24:57;;;;;;;249.18;94.95;;;;;;;-5.22;75.39;102365.05;2049103;86;34110;-63
2022/01/12 03:28:03;;;;;;;215.55;86.47;;;;;;;-5.20;75.40;102360.80;2046684;85;27697;-63
2022/01/12 03:31:17;;;;;;;213.90;85.05;;;;;;;-5.20;75.29;102349.05;2058028;86;27723;-61
2022/01/12 03:34:24;;;;;;;211.45;85.95;;;;;;;-5.18;75.21;102360.47;2058888;86;29099;-65
2022/01/12 03:37:40;;;;;;;222.22;86.87;;;;;;;-5.16;75.26;102372.29;2054482;84;33158;-65
2022/01/12 03:40:22;;;;;;;247.00;92.17;;;;;;;-5.14;75.37;102375.48;2049718;86;33612;-65
2022/01/12 03:43:24;;;;;;;220.57;88.92;;;;;;;-5.12;75.54;102372.93;2054292;86;29886;-65
2022/01/12 03:46:45;;;;;;;217.55;90.35;;;;;;;-5.08;75.75;102378.80;2053832;86;27714;-63
2022/01/12 03:49:47;;;;;;;250.05;92.67;;;;;;;-5.02;75.91;102373.84;2013383;87;29899;-64
2022/01/12 03:52:48;;;;;;;231.15;89.95;;;;;;;-4.99;75.81;102371.39;1996873;88;32223;-64
2022/01/12 03:55:51;;;;;;;228.37;90.17;;;;;;;-4.96;75.82;102368.92;2017563;87;33787;-65
2022/01/12 03:58:53;;;;;;;232.43;91.82;;;;;;;-4.96;75.87;102366.31;2014759;88;29639;-66
2022/01/12 04:01:55;;;;;;;235.13;93.82;;;;;;;-4.93;75.91;102362.55;2033383;87;28050;-65
2022/01/12 04:05:27;;;;;;;240.65;94.83;;;;;;;-4.89;75.94;102365.80;2009050;88;29875;-60
2022/01/12 04:08:23;;;;;;;240.77;88.67;;;;;;;-4.85;75.94;102364.21;2015625;87;32241;-60
2022/01/12 04:11:24;;;;;;;236.00;91.32;;;;;;;-4.82;75.83;102362.14;2036486;87;33955;-60
2022/01/12 04:14:26;;;;;;;230.20;94.20;;;;;;;-4.82;75.81;102366.06;2028613;87;29643;-61
2022/01/12 04:17:28;;;;;;;235.70;95.83;;;;;;;-4.81;75.90;102367.86;2009321;88;27746;-60
2022/01/12 04:20:30;;;;;;;250.15;97.40;;;;;;;-4.78;75.90;102368.89;2008863;88;29157;-61
2022/01/12 04:23:31;;;;;;;241.57;97.25;;;;;;;-4.76;75.91;102362.44;2012174;87;31421;-63
2022/01/12 04:26:34;;;;;;;247.52;97.95;;;;;;;-4.73;75.89;102359.98;2067049;85;33945;-61
2022/01/12 04:29:35;;;;;;;250.28;95.60;;;;;;;-4.73;75.78;102360.86;2080432;85;30545;-65
2022/01/12 04:32:41;;;;;;;253.95;98.92;;;;;;;-4.73;75.69;102356.94;2081778;85;27801;-64
2022/01/12 04:35:47;;;;;;;242.05;95.53;;;;;;;-4.74;75.63;102362.11;2080426;85;29648;-63
2022/01/12 04:38:48;;;;;;;258.75;101.72;;;;;;;-4.80;75.45;102361.80;2093333;84;31649;-64
2022/01/12 04:41:49;;;;;;;250.13;95.17;;;;;;;-4.80;75.67;102357.88;2115394;84;34341;-60
2022/01/12 04:45:00;;;;;;;216.73;91.22;;;;;;;-4.80;75.62;102350.05;2109782;84;30047;-59
2022/01/12 04:50:58;;;;;;;249.42;93.27;;;;;;;-4.82;75.67;102357.83;2109159;84;29863;-60
2022/01/12 04:54:00;;;;;;;238.28;92.80;;;;;;;-4.83;75.68;102351.20;2098408;84;31176;-60
2022/01/12 04:57:04;;;;;;;241.30;96.75;;;;;;;-4.85;75.58;102355.06;2079224;85;33822;-60
2022/01/12 05:00:31;;;;;;;246.13;96.10;;;;;;;-4.86;75.58;102353.66;2081155;85;29770;-60
2022/01/12 05:06:50;;;;;;;241.95;95.07;;;;;;;-4.90;75.36;102371.84;2081198;85;29897;-60
2022/01/12 05:12:57;;;;;;;241.10;95.75;;;;;;;-4.96;75.55;102358.89;2019198;88;34223;-59
2022/01/12 05:16:00;;;;;;;243.65;97.30;;;;;;;-4.96;75.63;102355.86;2017736;88;29585;-60
2022/01/12 05:19:05;;;;;;;243.20;94.37;;;;;;;-4.97;75.61;102359.29;2009929;88;27801;-60
2022/01/12 05:22:06;;;;;;;254.15;99.10;;;;;;;-4.94;75.64;102356.83;2009945;88;29986;-64
2022/01/12 05:25:08;;;;;;;251.15;95.65;;;;;;;-4.94;75.52;102362.05;2009920;88;31372;-60
2022/01/12 05:28:10;;;;;;;240.10;95.92;;;;;;;-4.94;75.48;102367.67;1988388;88;33775;-65
2022/01/12 05:31:13;;;;;;;251.65;96.47;;;;;;;-4.96;75.36;102372.84;1999777;88;30838;-65
2022/01/12 05:34:15;;;;;;;235.85;92.72;;;;;;;-4.98;75.39;102374.48;2040097;87;27908;-65
2022/01/12 05:37:17;;;;;;;241.23;93.87;;;;;;;-5.01;75.32;102370.84;2040273;87;29850;-63
2022/01/12 05:40:20;;;;;;;226.30;89.42;;;;;;;-5.04;75.25;102369.86;2039949;87;32316;-60
2022/01/12 05:43:28;;;;;;;239.65;94.55;;;;;;;-5.06;75.34;102388.50;2040253;87;33729;-60
2022/01/12 05:46:31;;;;;;;244.77;96.02;;;;;;;-5.07;75.27;102394.54;2039744;87;31067;-60
2022/01/12 05:49:36;;;;;;;253.12;97.97;;;;;;;-5.09;75.18;102390.07;2052196;86;27690;-61
2022/01/12 05:52:38;;;;;;;254.90;102.10;;;;;;;-5.12;75.30;102392.10;2043997;86;28821;-60
2022/01/12 05:55:41;;;;;;;260.80;102.27;;;;;;;-5.14;75.28;102395.47;2038263;86;31617;-60
2022/01/12 05:58:42;;;;;;;273.73;107.58;;;;;;;-5.16;75.29;102390.19;2040087;87;33790;-61
2022/01/12 06:01:44;;;;;;;258.30;103.77;;;;;;;-5.18;75.19;102398.36;2037836;85;29658;-61
2022/01/12 06:04:46;;;;;;;255.77;105.70;;;;;;;-5.25;75.06;102407.61;2033861;87;28196;-63
2022/01/12 06:07:50;;;;;;;282.10;110.52;;;;;;;-5.27;75.13;102415.78;2037213;85;29905;-65
2022/01/12 06:10:52;;;;;;;280.23;111.35;;;;;;;-5.30;75.13;102428.69;2050042;86;31283;-60
2022/01/12 06:13:55;;;;;;;296.60;112.83;;;;;;;-5.32;75.12;102428.13;2048421;85;33876;-60
2022/01/12 06:16:58;;;;;;;302.65;116.00;;;;;;;-5.34;75.23;102420.20;2033713;87;29720;-61
2022/01/12 06:20:00;;;;;;;305.60;117.50;;;;;;;-5.34;75.24;102412.36;2034777;87;27741;-60
2022/01/12 06:23:02;;;;;;;308.93;113.05;;;;;;;-5.38;75.25;102424.38;2037228;87;29916;-59
2022/01/12 06:26:04;;;;;;;301.10;116.47;;;;;;;-5.43;75.22;102432.39;2041046;87;31178;-62
2022/01/12 06:32:11;;;;;;;271.25;108.27;;;;;;;-5.50;75.42;102423.34;2044822;87;29861;-61
2022/01/12 06:35:15;;;;;;;269.60;102.25;;;;;;;-5.49;75.29;102411.20;2046739;86;27747;-60
2022/01/12 06:38:17;;;;;;;;;;;;;;;-5.53;75.21;102412.73;2050568;86;29866;-60
2022/01/12 06:41:21;;;;;;;266.50;99.15;;;;;;;-5.56;75.06;102417.83;2048082;86;32065;-59
2022/01/12 06:44:25;;;;;;;271.75;103.35;;;;;;;-5.62;75.07;102416.20;2047945;86;34346;-59
2022/01/12 06:47:26;;;;;;;261.62;102.45;;;;;;;-5.65;75.16;102412.13;2048129;86;30978;-61
2022/01/12 06:50:28;;;;;;;252.03;94.28;;;;;;;-5.71;75.11;102407.91;2048227;86;28320;-60
2022/01/12 06:53:32;;;;;;;227.80;91.65;;;;;;;-5.72;75.07;102413.95;2052411;86;30024;-63
2022/01/12 06:56:37;;;;;;;244.50;95.05;;;;;;;-5.74;75.06;102415.58;2055384;86;31030;-60
2022/01/12 06:59:43;;;;;;;254.03;94.70;;;;;;;-5.72;75.23;102425.70;2055092;86;34197;-60
2022/01/12 07:02:45;;;;;;;256.90;98.65;;;;;;;-5.73;75.35;102433.92;2055198;86;30216;-60
2022/01/12 07:05:47;;;;;;;262.42;100.62;;;;;;;-5.72;75.33;102425.70;2055163;86;27714;-63
2022/01/12 07:08:49;;;;;;;253.25;99.45;;;;;;;-5.70;75.51;102444.53;2055378;86;29929;-60
2022/01/12 07:11:52;;;;;;;241.82;97.50;;;;;;;-5.68;75.45;102462.48;2055212;86;32474;-62
2022/01/12 07:14:55;;;;;;;241.68;97.97;;;;;;;-5.64;75.55;102454.39;2050376;86;33892;-64
2022/01/12 07:18:00;;;;;;;243.02;93.27;;;;;;;-5.61;75.47;102450.64;2048364;86;29664;-63
2022/01/12 07:21:02;;;;;;;237.40;93.60;;;;;;;-5.59;75.25;102453.31;2029574;86;27741;-64
2022/01/12 07:24:05;;;;;;;247.17;99.30;;;;;;;-5.63;75.20;102439.63;2048112;86;29306;-59
2022/01/12 07:27:07;;;;;;;262.88;98.25;;;;;;;-5.63;75.23;102437.91;2048255;86;31061;-59
2022/01/12 07:30:10;;;;;;;243.40;91.32;;;;;;;-5.60;75.33;102439.38;2048181;86;33935;-63
2022/01/12 07:33:13;;;;;;;233.57;87.67;;;;;;;-5.56;75.51;102440.03;2040363;86;29700;-58
2022/01/12 07:36:16;;;;;;;236.90;90.30;;;;;;;-5.53;75.40;102437.55;2040782;86;28362;-61
2022/01/12 07:39:18;;;;;;;269.80;97.42;;;;;;;-5.49;75.61;102449.95;2050345;86;29677;-60
2022/01/12 07:42:19;;;;;;;246.80;96.63;;;;;;;-5.44;75.45;102462.36;2050289;86;32263;-63
2022/01/12 07:45:22;;;;;;;248.25;94.05;;;;;;;-5.41;75.57;102462.09;2050272;86;34197;-63
2022/01/12 07:48:24;;;;;;;269.50;100.90;;;;;;;-5.34;75.72;102461.99;2050300;86;30627;-63
2022/01/12 07:51:26;;;;;;;240.85;94.00;;;;;;;-5.27;75.72;102461.50;2050446;86;27749;-62
2022/01/12 07:54:28;;;;;;;224.22;88.60;;;;;;;-5.21;75.84;102459.17;2049576;86;30006;-63
2022/01/12 07:57:30;;;;;;;240.40;91.82;;;;;;;-5.09;75.97;102454.98;2042871;86;32322;-61
2022/01/12 08:00:33;;;;;;;234.50;91.65;;;;;;;-4.94;76.10;102455.24;2043545;86;33004;-61
2022/01/12 08:03:35;;;;;;;224.55;87.95;;;;;;;-4.80;76.09;102460.77;2048469;86;30507;-59
2022/01/12 08:06:38;;;;;;;218.05;88.75;;;;;;;-4.63;76.05;102461.98;2048427;86;27686;-62
2022/01/12 08:09:42;;;;;;;217.77;90.35;;;;;;;-4.45;76.11;102453.68;2048783;86;29057;-59
2022/01/12 08:12:47;;;;;;;213.03;88.27;;;;;;;-4.27;76.06;102451.05;2048725;86;31032;-58
2022/01/12 08:15:48;;;;;;;205.45;85.90;;;;;;;-4.10;76.04;102445.69;2049012;86;34211;-58
2022/01/12 08:18:50;;;;;;;187.85;83.15;;;;;;;-3.92;75.81;102452.16;2057654;86;30823;-63
2022/01/12 08:21:52;;;;;;;194.87;81.12;;;;;;;-3.75;75.98;102446.38;2057081;85;27615;-61
2022/01/12 08:24:55;;;;;;;191.43;83.75;;;;;;;-3.60;75.53;102451.80;2047689;86;29787;-60
2022/01/12 08:27:57;;;;;;;183.10;79.97;;;;;;;-3.56;75.22;102458.55;2051876;86;31918;-60
2022/01/12 08:30:59;;;;;;;196.65;84.58;;;;;;;-3.52;75.11;102454.33;2069653;85;33720;-60
2022/01/12 08:34:03;;;;;;;198.57;85.75;;;;;;;-3.48;75.06;102462.80;2082196;85;30448;-58
2022/01/12 08:37:05;;;;;;;188.70;85.42;;;;;;;-3.45;74.75;102462.03;2081866;85;27813;-58
2022/01/12 08:40:09;;;;;;;202.07;86.57;;;;;;;-3.41;74.82;102460.03;2081699;85;29892;-58
2022/01/12 08:43:12;;;;;;;215.45;92.05;;;;;;;-3.40;74.32;102451.34;2082117;84;31045;-59
2022/01/12 08:46:16;;;;;;;190.12;84.85;;;;;;;-3.41;74.57;102441.69;2087321;85;32974;-60
2022/01/12 08:49:18;;;;;;;208.43;90.25;;;;;;;-3.34;74.48;102441.53;2087249;85;29712;-58
2022/01/12 08:52:23;;;;;;;203.05;86.63;;;;;;;-3.27;74.61;102429.18;2066734;85;27601;-59
2022/01/12 08:55:25;;;;;;;210.35;90.17;;;;;;;-3.18;74.74;102424.30;2030904;86;29413;-58
2022/01/12 08:58:27;;;;;;;213.07;88.22;;;;;;;-3.08;74.67;102439.61;2030357;86;31903;-60
2022/01/12 09:01:29;;;;;;;223.62;92.27;;;;;;;-2.97;74.70;102433.89;2045252;86;33815;-59
2022/01/12 09:04:31;;;;;;;210.93;91.42;;;;;;;-2.88;74.71;102421.14;2053138;86;30660;-59
2022/01/12 09:07:35;;;;;;;209.00;88.78;;;;;;;-2.80;74.57;102417.51;2097454;84;27657;-59
2022/01/12 09:10:37;;;;;;;205.43;88.97;;;;;;;-2.73;74.49;102416.05;2097711;84;28648;-60
2022/01/12 09:13:40;;;;;;;214.63;92.27;;;;;;;-2.69;74.25;102418.85;2097393;84;32411;-62
2022/01/12 09:16:57;;;;;;;203.58;88.90;;;;;;;-2.64;74.39;102415.09;2097407;84;32171;-59
2022/01/12 09:19:59;;;;;;;199.42;88.20;;;;;;;-2.56;74.33;102420.20;2097923;84;29727;-59
2022/01/12 09:23:01;;;;;;;203.47;85.70;;;;;;;-2.47;74.34;102411.39;2061849;84;27623;-61
2022/01/12 09:26:04;;;;;;;197.60;88.60;;;;;;;-2.36;74.48;102405.25;2043284;86;29719;-62
2022/01/12 09:29:05;;;;;;;196.07;86.90;;;;;;;-2.23;74.40;102410.95;2045396;87;32261;-62
2022/01/12 09:32:12;;;;;;;187.72;84.05;;;;;;;-2.12;74.25;102401.73;2045993;86;34194;-61
2022/01/12 09:35:14;;;;;;;187.07;85.50;;;;;;;-2.01;74.17;102395.56;2045810;87;30695;-59
2022/01/12 09:38:20;;;;;;;186.92;83.95;;;;;;;-1.91;74.16;102400.33;2046019;86;27826;-60
2022/01/12 09:41:25;;;;;;;195.72;85.32;;;;;;;-1.80;73.90;102397.17;2046124;87;28806;-59
2022/01/12 09:44:33;;;;;;;201.05;88.70;;;;;;;-1.74;73.94;102413.17;2045749;87;31924;-61
2022/01/12 09:47:35;;;;;;;212.20;92.37;;;;;;;-1.61;74.10;102414.06;2045720;86;34183;-61
2022/01/12 09:50:38;;;;;;;199.77;86.92;;;;;;;-1.47;74.05;102421.53;2044998;87;30507;-58
2022/01/12 09:53:41;;;;;;;203.85;87.67;;;;;;;-1.30;74.16;102424.72;2046144;87;27733;-59
2022/01/12 09:56:43;;;;;;;203.47;86.08;;;;;;;-1.22;73.94;102410.11;2051237;86;28212;-56
2022/01/12 09:59:45;;;;;;;184.13;84.47;;;;;;;-1.12;73.75;102400.79;2048927;86;33157;-57
2022/01/12 10:02:48;;;;;;;182.70;85.67;;;;;;;-1.03;73.47;102401.52;2053017;86;33816;-58
2022/01/12 10:05:50;;;;;;;185.82;82.97;;;;;;;-1.03;73.40;102398.88;2052909;86;30836;-58
2022/01/12 10:08:55;;;;;;;187.07;85.12;;;;;;;-1.00;73.17;102401.62;2053268;86;27621;-61
2022/01/12 10:12:00;;;;;;;178.60;81.53;;;;;;;-0.98;73.10;102394.64;2053010;85;29961;-60
2022/01/12 10:15:13;;;;;;;188.85;86.53;;;;;;;-0.95;73.32;102388.17;2053213;86;31025;-62
2022/01/12 10:18:15;;;;;;;194.17;91.20;;;;;;;-0.87;73.57;102389.72;2053341;86;32741;-60
2022/01/12 10:21:37;;;;;;;190.68;88.60;;;;;;;-0.77;73.58;102383.48;2051465;86;30808;-60
2022/01/12 10:24:42;;;;;;;187.85;84.92;;;;;;;-0.72;73.14;102379.67;2045982;87;27752;-61
2022/01/12 10:27:44;;;;;;;182.50;85.67;;;;;;;-0.76;73.06;102379.13;2052427;85;29522;-61
2022/01/12 10:31:00;;;;;;;191.28;88.05;;;;;;;-0.75;72.96;102387.91;2087901;85;31687;-60
2022/01/12 10:34:03;;;;;;;195.22;92.40;;;;;;;-0.72;73.27;102394.59;2110875;84;32946;-59
2022/01/12 10:37:09;;;;;;;247.98;108.78;;;;;;;-0.71;73.15;102380.14;2079124;84;29684;-60
2022/01/12 10:40:12;;;;;;;216.90;99.47;;;;;;;-0.70;73.17;102371.84;2078622;85;27704;-60
2022/01/12 10:43:39;;;;;;;209.62;92.50;;;;;;;-0.65;73.30;102368.91;2078275;85;29377;-60
2022/01/12 10:46:41;;;;;;;194.75;89.10;;;;;;;-0.60;73.25;102369.95;2078152;85;32057;-61
2022/01/12 10:49:54;;;;;;;177.27;78.65;;;;;;;-0.56;73.15;102361.30;2078157;85;34163;-60
2022/01/12 10:52:57;;;;;;;176.97;83.37;;;;;;;-0.54;73.09;102359.62;2043592;85;30857;-63
2022/01/12 10:56:12;;;;;;;171.10;76.33;;;;;;;-0.52;73.05;102356.61;2042965;87;27709;-60
2022/01/12 10:59:22;;;;;;;157.52;74.12;;;;;;;-0.43;73.12;102348.49;2042684;87;29840;-62
2022/01/12 11:02:27;;;;;;;155.60;73.05;;;;;;;-0.37;73.20;102353.95;2042382;86;32288;-63
2022/01/12 11:05:32;;;;;;;151.15;72.58;;;;;;;-0.24;73.42;102348.18;2042761;87;33756;-62
2022/01/12 11:08:36;;;;;;;153.35;73.37;;;;;;;-0.04;73.78;102342.58;2042815;87;29640;-62
2022/01/12 11:11:38;;;;;;;152.30;69.55;;;;;;;0.14;73.67;102318.45;2043031;87;27698;-62
2022/01/12 11:14:41;;;;;;;147.47;73.92;;;;;;;0.31;73.64;102318.91;2023970;87;29340;-61
2022/01/12 11:17:49;;;;;;;128.75;62.03;;;;;;;0.47;73.60;102322.80;2042376;87;32124;-62
2022/01/12 11:20:52;;;;;;;117.62;57.45;;;;;;;0.62;73.19;102322.30;2040624;87;32984;-60
2022/01/12 11:23:59;;;;;;;122.07;56.87;;;;;;;0.70;73.01;102316.77;2034743;87;29628;-61
2022/01/12 11:27:03;;;;;;;108.60;54.00;;;;;;;0.83;73.17;102315.77;2034840;87;27688;-61
2022/01/12 11:30:08;;;;;;;118.97;54.98;;;;;;;0.96;73.03;102319.55;2034760;87;28708;-59
2022/01/12 11:33:11;;;;;;;112.60;56.33;;;;;;;1.09;72.93;102324.25;2021349;86;31785;-58
2022/01/12 11:36:38;;;;;;;107.65;54.88;;;;;;;1.24;72.89;102310.95;2048821;86;32974;-60
2022/01/12 11:39:40;;;;;;;90.25;48.75;;;;;;;1.34;72.80;102315.11;2048571;86;30917;-62
2022/01/12 11:42:43;;;;;;;109.70;59.93;;;;;;;1.45;72.42;102307.87;2049007;86;27721;-62
2022/01/12 11:45:46;;;;;;;99.85;54.23;;;;;;;1.57;72.26;102292.70;2048857;86;28667;-60
2022/01/12 11:48:59;;;;;;;82.72;39.90;;;;;;;1.62;72.14;102282.69;2048798;86;31190;-60
2022/01/12 11:52:26;;;;;;;76.42;38.38;;;;;;;1.64;71.80;102280.97;2046292;86;32978;-61
2022/01/12 11:55:28;;;;;;;75.22;36.42;;;;;;;1.71;71.83;102275.78;2046558;86;30507;-59
2022/01/12 11:58:30;;;;;;;85.97;48.73;;;;;;;1.70;71.38;102268.30;2029748;86;27745;-58
2022/01/12 12:01:50;;;;;;;83.85;44.75;;;;;;;1.75;71.51;102260.45;2014949;88;29995;-58
2022/01/12 12:04:58;;;;;;;80.38;39.90;;;;;;;1.84;71.79;102263.25;2045574;87;31048;-59
2022/01/12 12:08:04;;;;;;;67.60;34.40;;;;;;;1.91;71.45;102254.59;2045680;87;32976;-58
2022/01/12 12:11:09;;;;;;;67.47;32.67;;;;;;;1.97;71.30;102247.20;2045596;86;29636;-59
2022/01/12 12:14:12;;;;;;;58.45;31.50;;;;;;;1.96;70.71;102252.93;2045691;87;27724;-59
2022/01/12 12:17:16;;;;;;;61.33;31.35;;;;;;;1.91;70.62;102249.30;2045688;87;29507;-59
2022/01/12 12:20:21;;;;;;;57.90;30.57;;;;;;;1.84;70.43;102251.81;2045817;86;31821;-59
2022/01/12 12:23:28;;;;;;;60.73;30.70;;;;;;;1.77;70.49;102242.44;2050041;86;36673;-60
2022/01/12 12:26:28;;;;;;;59.33;30.80;;;;;;;1.67;70.29;102244.02;2050368;86;29659;-59
2022/01/12 12:29:30;;;;;;;64.32;33.35;;;;;;;1.62;70.56;102244.80;2049905;86;27647;-59
2022/01/12 12:32:36;;;;;;;60.63;32.63;;;;;;;1.53;70.26;102245.50;2051545;86;30045;-59
2022/01/12 12:35:40;;;;;;;63.87;33.08;;;;;;;1.44;70.25;102234.78;2060891;86;31063;-59
2022/01/12 12:38:44;;;;;;;62.80;34.55;;;;;;;1.35;70.26;102236.80;2052977;86;32427;-59
2022/01/12 12:41:46;;;;;;;67.42;34.40;;;;;;;1.27;70.34;102240.61;2054560;86;30418;-59
2022/01/12 12:44:52;;;;;;;71.55;35.17;;;;;;;1.20;70.31;102249.25;2053778;86;27651;-59
2022/01/12 12:47:57;;;;;;;70.65;36.28;;;;;;;1.13;70.22;102255.28;2054343;86;28666;-59
2022/01/12 12:51:08;;;;;;;53.13;30.20;;;;;;;1.11;70.35;102259.63;2027904;86;31036;-59
2022/01/12 12:54:13;;;;;;;78.97;35.28;;;;;;;1.08;70.46;102255.60;2061565;84;33047;-59
2022/01/12 12:57:20;;;;;;;66.05;37.63;;;;;;;1.02;70.16;102248.00;2060364;86;29665;-59
2022/01/12 13:00:24;;;;;;;57.80;32.05;;;;;;;0.98;70.26;102253.19;2060872;86;27705;-59
2022/01/12 13:03:26;;;;;;;71.85;35.55;;;;;;;0.91;70.07;102245.57;2061489;84;29469;-61
2022/01/12 13:06:34;;;;;;;74.87;38.42;;;;;;;0.88;70.16;102258.69;2058265;86;31256;-59
2022/01/12 13:09:36;;;;;;;71.22;34.83;;;;;;;0.80;70.05;102259.84;2059375;85;32324;-59
2022/01/12 13:12:40;;;;;;;62.73;33.78;;;;;;;0.77;70.21;102256.25;2060238;86;30848;-59
2022/01/12 13:15:45;;;;;;;69.30;33.85;;;;;;;0.75;70.18;102265.02;2061166;86;28037;-58
2022/01/12 13:18:50;;;;;;;82.95;45.17;;;;;;;0.78;70.46;102269.46;2061503;86;29488;-59
2022/01/12 13:21:52;;;;;;;87.37;46.85;;;;;;;0.85;70.55;102270.48;2091454;84;32350;-58
2022/01/12 13:24:54;;;;;;;78.85;39.35;;;;;;;0.90;70.63;102272.40;2095686;84;34208;-59
2022/01/12 13:27:58;;;;;;;76.45;35.63;;;;;;;0.95;70.53;102265.90;2089788;84;30843;-59
2022/01/12 13:31:04;;;;;;;67.00;34.55;;;;;;;1.02;70.63;102265.60;2076384;85;27759;-59
2022/01/12 13:34:13;;;;;;;65.52;32.42;;;;;;;1.09;70.67;102267.94;2068978;85;30156;-59
2022/01/12 13:37:15;;;;;;;69.20;36.38;;;;;;;1.15;70.69;102253.13;2038697;86;31089;-58
2022/01/12 13:40:16;;;;;;;62.83;31.90;;;;;;;1.21;70.53;102244.44;2046594;85;32438;-58
2022/01/12 13:43:24;;;;;;;61.90;31.62;;;;;;;1.27;70.38;102240.61;2054298;85;30823;-58
2022/01/12 13:46:39;;;;;;;58.63;29.95;;;;;;;1.27;70.12;102239.70;2101297;84;27714;-59
2022/01/12 13:49:42;;;;;;;58.08;30.95;;;;;;;1.28;70.24;102240.17;2112538;84;29881;-58
2022/01/12 13:52:55;;;;;;;58.13;29.40;;;;;;;1.28;70.11;102235.80;2095644;84;32270;-60
2022/01/12 13:55:58;;;;;;;68.47;35.70;;;;;;;1.31;70.19;102234.95;2083448;84;32990;-59
2022/01/12 13:59:04;;;;;;;65.62;35.90;;;;;;;1.34;70.12;102233.70;2055826;84;27718;-59
2022/01/12 14:02:13;;;;;;;73.93;36.17;;;;;;;1.38;70.18;102234.23;2086857;84;27760;-59
2022/01/12 14:05:20;;;;;;;61.28;33.75;;;;;;;1.36;70.05;102218.78;2093751;84;28720;-60
2022/01/12 14:08:22;;;;;;;74.58;39.33;;;;;;;1.43;69.88;102235.64;2065849;84;31100;-60
2022/01/12 14:11:37;;;;;;;73.67;38.92;;;;;;;1.45;70.12;102234.80;2084188;84;34167;-59
2022/01/12 14:15:01;;;;;;;64.20;34.23;;;;;;;1.46;70.02;102224.69;2096519;84;37175;-60
2022/01/12 14:18:06;;;;;;;71.62;36.70;;;;;;;1.48;69.93;102233.98;2096390;84;27951;-59
2022/01/12 14:21:23;;;;;;;64.50;34.17;;;;;;;1.50;69.92;102237.52;2081677;84;29381;-61
2022/01/12 14:24:25;;;;;;;59.83;31.23;;;;;;;1.48;69.84;102237.95;2094564;84;31760;-59
2022/01/12 14:27:49;;;;;;;77.82;42.70;;;;;;;1.48;69.84;102259.95;2095964;84;34081;-59
2022/01/12 14:30:50;;;;;;;75.57;39.55;;;;;;;1.49;69.84;102254.25;2095959;84;30068;-60
2022/01/12 14:33:53;;;;;;;72.40;39.90;;;;;;;1.46;69.90;102258.15;2096072;84;28196;-59
2022/01/12 14:36:57;;;;;;;71.53;37.95;;;;;;;1.48;70.17;102257.75;2069118;84;29605;-59
2022/01/12 14:40:00;;;;;;;84.77;44.40;;;;;;;1.48;70.10;102258.62;2049135;85;31490;-60
2022/01/12 14:43:07;;;;;;;93.45;48.83;;;;;;;1.49;70.05;102259.54;2054186;86;33892;-61
2022/01/12 14:46:09;;;;;;;66.22;32.83;;;;;;;1.49;70.09;102243.25;2055440;85;29862;-60
2022/01/12 14:49:11;;;;;;;66.30;33.73;;;;;;;1.47;69.86;102254.66;2052619;86;28311;-60
2022/01/12 14:52:15;;;;;;;62.10;33.28;;;;;;;1.47;70.07;102250.69;2054655;86;29495;-60
2022/01/12 14:55:18;;;;;;;58.13;31.65;;;;;;;1.45;69.89;102244.04;2055345;85;31093;-61
2022/01/12 14:58:22;;;;;;;63.58;34.03;;;;;;;1.43;69.77;102248.39;2053965;86;34191;-59
2022/01/12 15:01:24;;;;;;;65.55;34.43;;;;;;;1.40;69.90;102235.16;2053844;86;30823;-59